Time,TemperatureF,DewpointF,PressureIn,WindDirection,WindDirectionDegrees,WindSpeedMPH,WindSpeedGustMPH,Humidity,HourlyPrecipIn,Conditions,Clouds,dailyrainin,SoftwareType,DateUTC
2013-01-30 00:00:00,43.5,40.5,30.32,SE,131,0.0,0.0,89,0.00,CLR,,0.00,WeatherDisplay:10.37,2013-01-30 08:00:00,
2013-01-30 00:15:00,43.3,40.6,30.32,SE,131,0.0,0.0,90,0.00,CLR,,0.00,WeatherDisplay:10.37,2013-01-30 08:15:00,
2013-01-30 00:30:00,43.1,40.4,30.32,SE,131,0.0,0.0,90,0.00,CLR,,0.00,WeatherDisplay:10.37,2013-01-30 08:30:00,
2013-01-30 00:45:00,42.8,40.1,30.32,SE,131,0.0,0.0,90,0.00,CLR,,0.00,WeatherDisplay:10.37,2013-01-30 08:45:00,
2013-01-30 01:00:00,42.6,39.9,30.32,SE,131,0.0,0.0,90,0.00,CLR,,0.00,WeatherDisplay:10.37,2013-01-30 09:00:00,
2013-01-30 01:15:00,42.3,39.6,30.31,SE,131,0.0,2.0,90,0.00,CLR,,0.00,WeatherDisplay:10.37,2013-01-30 09:15:00,
2013-01-30 01:30:00,42.1,39.7,30.31,SE,131,0.0,0.0,91,0.00,CLR,,0.00,WeatherDisplay:10.37,2013-01-30 09:30:00,
2013-01-30 01:45:00,42.0,39.5,30.31,SE,131,0.0,0.0,91,0.00,CLR,,0.00,WeatherDisplay:10.37,2013-01-30 09:45:00,
2013-01-30 02:00:00,41.6,39.2,30.32,SE,131,0.0,0.0,91,0.00,CLR,,0.00,WeatherDisplay:10.37,2013-01-30 10:00:00,
2013-01-30 02:15:00,41.3,39.2,30.31,SE,131,0.0,0.0,92,0.00,CLR,,0.00,WeatherDisplay:10.37,2013-01-30 10:15:00,
2013-01-30 02:30:00,41.3,39.1,30.31,SE,131,0.0,0.0,92,0.00,CLR,,0.00,WeatherDisplay:10.37,2013-01-30 10:30:00,
2013-01-30 02:45:00,41.0,38.8,30.31,SE,131,0.0,0.0,92,0.00,CLR,,0.00,WeatherDisplay:10.37,2013-01-30 10:45:00,
2013-01-30 03:00:00,41.0,38.8,30.31,SE,131,0.0,0.0,92,0.00,CLR,,0.00,WeatherDisplay:10.37,2013-01-30 11:00:00,
2013-01-30 03:15:00,40.7,38.6,30.30,SE,131,0.0,0.0,92,0.00,CLR,,0.00,WeatherDisplay:10.37,2013-01-30 11:15:00,
2013-01-30 03:30:00,40.7,38.6,30.30,SE,131,0.0,1.0,92,0.00,CLR,,0.00,WeatherDisplay:10.37,2013-01-30 11:30:00,
2013-01-30 03:45:00,40.4,38.2,30.30,SE,131,0.0,0.0,92,0.00,CLR,,0.00,WeatherDisplay:10.37,2013-01-30 11:45:00,
2013-01-30 04:00:00,40.1,38.0,30.30,SE,131,0.0,0.0,92,0.00,CLR,,0.00,WeatherDisplay:10.37,2013-01-30 12:00:00,
2013-01-30 04:15:00,40.3,38.5,30.30,SE,131,0.0,2.0,93,0.00,CLR,,0.00,WeatherDisplay:10.37,2013-01-30 12:15:00,
2013-01-30 04:30:00,40.6,38.7,30.30,SE,131,0.0,0.0,93,0.00,CLR,,0.00,WeatherDisplay:10.37,2013-01-30 12:30:00,
2013-01-30 04:45:00,40.5,38.6,30.30,SE,131,0.0,0.0,93,0.00,CLR,,0.00,WeatherDisplay:10.37,2013-01-30 12:45:00,
2013-01-30 05:00:00,40.2,38.3,30.30,SE,131,0.0,0.0,93,0.00,CLR,,0.00,WeatherDisplay:10.37,2013-01-30 13:00:00,
2013-01-30 05:15:00,39.8,37.9,30.30,SE,131,0.0,0.0,93,0.00,CLR,,0.00,WeatherDisplay:10.37,2013-01-30 13:15:00,
2013-01-30 05:30:00,39.7,37.8,30.30,SE,131,0.0,1.0,93,0.00,CLR,,0.00,WeatherDisplay:10.37,2013-01-30 13:30:00,
2013-01-30 05:45:00,39.5,37.6,30.31,SE,131,0.0,0.0,93,0.00,CLR,,0.00,WeatherDisplay:10.37,2013-01-30 13:45:00,
2013-01-30 06:00:00,39.4,37.5,30.31,SE,131,0.0,1.0,93,0.00,CLR,,0.00,WeatherDisplay:10.37,2013-01-30 14:00:00,
2013-01-30 06:15:00,39.5,37.9,30.31,SE,131,0.0,0.0,94,0.00,CLR,,0.00,WeatherDisplay:10.37,2013-01-30 14:15:00,
2013-01-30 06:30:00,39.4,37.5,30.32,SE,131,0.0,0.0,93,0.00,CLR,,0.00,WeatherDisplay:10.37,2013-01-30 14:30:00,
2013-01-30 06:45:00,39.4,37.8,30.32,SE,131,0.0,0.0,94,0.00,CLR,,0.00,WeatherDisplay:10.37,2013-01-30 14:45:00,
2013-01-30 07:00:00,39.4,37.8,30.32,SE,131,0.0,0.0,94,0.00,CLR,,0.00,WeatherDisplay:10.37,2013-01-30 15:00:00,
2013-01-30 07:15:00,39.4,37.8,30.33,SE,131,0.0,0.0,94,0.00,CLR,,0.00,WeatherDisplay:10.37,2013-01-30 15:15:00,
2013-01-30 07:30:00,39.5,37.9,30.34,SE,131,0.0,0.0,94,0.00,CLR,,0.00,WeatherDisplay:10.37,2013-01-30 15:30:00,
2013-01-30 07:45:00,39.6,38.0,30.34,SE,131,0.0,0.0,94,0.00,CLR,,0.00,WeatherDisplay:10.37,2013-01-30 15:45:00,
2013-01-30 08:00:00,40.5,39.1,30.35,SE,131,0.0,0.0,95,0.00,CLR,,0.00,WeatherDisplay:10.37,2013-01-30 16:00:00,
2013-01-30 08:15:00,41.8,40.8,30.35,SE,131,0.0,0.0,96,0.00,FEW,,0.00,WeatherDisplay:10.37,2013-01-30 16:15:00,
2013-01-30 08:30:00,43.5,42.5,30.35,SE,131,0.0,0.0,96,0.00,FEW,,0.00,WeatherDisplay:10.37,2013-01-30 16:30:00,
2013-01-30 08:45:00,45.5,44.4,30.35,SE,131,0.0,0.0,96,0.00,FEW,,0.00,WeatherDisplay:10.37,2013-01-30 16:45:00,
2013-01-30 09:00:00,48.8,47.5,30.35,SE,131,0.0,1.0,95,0.00,FEW,,0.00,WeatherDisplay:10.37,2013-01-30 17:00:00,
2013-01-30 09:15:00,52.6,47.6,30.35,WSW,237,1.0,4.0,83,0.00,FEW,,0.00,WeatherDisplay:10.37,2013-01-30 17:15:00,
2013-01-30 09:30:00,55.1,48.0,30.35,SW,222,0.0,2.0,77,0.00,FEW,,0.00,WeatherDisplay:10.37,2013-01-30 17:30:00,
2013-01-30 09:45:00,55.5,48.4,30.35,South,189,0.0,1.0,77,0.00,FEW,,0.00,WeatherDisplay:10.37,2013-01-30 17:45:00,
2013-01-30 10:00:00,56.0,48.9,30.36,SSE,147,0.0,4.0,77,0.00,FEW,,0.00,WeatherDisplay:10.37,2013-01-30 18:00:00,
2013-01-30 10:15:00,57.7,49.4,30.36,SSE,147,0.0,2.0,74,0.00,FEW,,0.00,WeatherDisplay:10.37,2013-01-30 18:15:00,
2013-01-30 10:30:00,59.7,47.0,30.36,South,190,0.0,4.0,63,0.00,FEW,,0.00,WeatherDisplay:10.37,2013-01-30 18:30:00,
2013-01-30 10:45:00,63.6,44.6,30.36,West,262,1.0,6.0,50,0.00,FEW,,0.00,WeatherDisplay:10.37,2013-01-30 18:45:00,
2013-01-30 11:00:00,65.2,43.9,30.36,WNW,287,3.0,6.0,46,0.00,FEW,,0.00,WeatherDisplay:10.37,2013-01-30 19:00:00,
2013-01-30 11:15:00,66.1,43.5,30.35,West,274,2.0,6.0,44,0.00,FEW,,0.00,WeatherDisplay:10.37,2013-01-30 19:15:00,
2013-01-30 11:30:00,66.5,43.9,30.35,NW,304,1.0,6.0,44,0.00,FEW,,0.00,WeatherDisplay:10.37,2013-01-30 19:30:00,
2013-01-30 11:45:00,67.2,43.3,30.34,WNW,285,1.0,6.0,42,0.00,FEW,,0.00,WeatherDisplay:10.37,2013-01-30 19:45:00,
2013-01-30 12:00:00,68.1,42.9,30.34,WNW,292,1.0,6.0,40,0.00,FEW,,0.00,WeatherDisplay:10.37,2013-01-30 20:00:00,
2013-01-30 12:15:00,67.9,43.3,30.33,NW,323,0.0,6.0,41,0.00,FEW,,0.00,WeatherDisplay:10.37,2013-01-30 20:15:00,
2013-01-30 12:30:00,68.5,43.2,30.32,West,279,0.0,5.0,40,0.00,SKC,,0.00,WeatherDisplay:10.37,2013-01-30 20:30:00,
2013-01-30 12:45:00,68.9,42.9,30.31,NNW,345,0.0,6.0,39,0.00,SKC,,0.00,WeatherDisplay:10.37,2013-01-30 20:45:00,
2013-01-30 13:00:00,68.7,42.7,30.30,NW,306,0.0,8.0,39,0.00,SKC,,0.00,WeatherDisplay:10.37,2013-01-30 21:00:00,
2013-01-30 13:15:00,69.0,43.7,30.30,WSW,252,2.0,5.0,40,0.00,SKC,,0.00,WeatherDisplay:10.37,2013-01-30 21:15:00,
2013-01-30 13:30:00,69.2,43.8,30.29,SW,227,1.0,4.0,40,0.00,SKC,,0.00,WeatherDisplay:10.37,2013-01-30 21:30:00,
2013-01-30 13:45:00,68.6,43.9,30.29,SSE,161,1.0,5.0,41,0.00,SKC,,0.00,WeatherDisplay:10.37,2013-01-30 21:45:00,
2013-01-30 14:00:00,68.3,43.7,30.28,SSE,168,0.0,4.0,41,0.00,SKC,,0.00,WeatherDisplay:10.37,2013-01-30 22:00:00,
2013-01-30 14:15:00,68.3,43.0,30.28,SE,133,0.0,5.0,40,0.00,SKC,,0.00,WeatherDisplay:10.37,2013-01-30 22:15:00,
2013-01-30 14:30:00,69.7,42.3,30.28,West,263,1.0,4.0,37,0.00,FEW,,0.00,WeatherDisplay:10.37,2013-01-30 22:30:00,
2013-01-30 14:45:00,69.6,42.2,30.28,SSE,148,0.0,5.0,37,0.00,FEW,,0.00,WeatherDisplay:10.37,2013-01-30 22:45:00,
2013-01-30 15:00:00,68.6,44.6,30.28,South,191,0.0,5.0,42,0.00,FEW,,0.00,WeatherDisplay:10.37,2013-01-30 23:00:00,
2013-01-30 15:15:00,66.3,43.7,30.28,SSW,207,0.0,3.0,44,0.00,FEW,,0.00,WeatherDisplay:10.37,2013-01-30 23:15:00,
2013-01-30 15:30:00,66.2,44.8,30.28,SSW,200,0.0,3.0,46,0.00,FEW,,0.00,WeatherDisplay:10.37,2013-01-30 23:30:00,
2013-01-30 15:45:00,65.2,45.0,30.28,SSW,204,1.0,5.0,48,0.00,FEW,,0.00,WeatherDisplay:10.37,2013-01-30 23:45:00,
2013-01-30 16:00:00,65.3,44.5,30.28,South,187,0.0,3.0,47,0.00,FEW,,0.00,WeatherDisplay:10.37,2013-01-31 00:00:00,
2013-01-30 16:15:00,65.1,44.4,30.28,SSW,195,0.0,2.0,47,0.00,SKC,,0.00,WeatherDisplay:10.37,2013-01-31 00:15:00,
2013-01-30 16:30:00,64.7,44.0,30.27,SSW,202,0.0,1.0,47,0.00,SKC,,0.00,WeatherDisplay:10.37,2013-01-31 00:30:00,
2013-01-30 16:45:00,64.5,44.4,30.27,SSW,202,0.0,1.0,48,0.00,SKC,,0.00,WeatherDisplay:10.37,2013-01-31 00:45:00,
2013-01-30 17:00:00,64.7,44.5,30.27,SSW,202,0.0,1.0,48,0.00,SKC,,0.00,WeatherDisplay:10.37,2013-01-31 01:00:00,
2013-01-30 17:15:00,64.0,45.0,30.27,SSW,202,0.0,1.0,50,0.00,SKC,,0.00,WeatherDisplay:10.37,2013-01-31 01:15:00,
2013-01-30 17:30:00,62.2,45.3,30.27,SSW,202,0.0,0.0,54,0.00,SKC,,0.00,WeatherDisplay:10.37,2013-01-31 01:30:00,
2013-01-30 17:45:00,60.4,45.6,30.27,SSW,202,0.0,0.0,58,0.00,SKC,,0.00,WeatherDisplay:10.37,2013-01-31 01:45:00,
2013-01-30 18:00:00,58.5,45.1,30.27,SSW,202,0.0,0.0,61,0.00,SKC,,0.00,WeatherDisplay:10.37,2013-01-31 02:00:00,
2013-01-30 18:15:00,57.1,44.6,30.27,SSW,202,0.0,0.0,63,0.00,SKC,,0.00,WeatherDisplay:10.37,2013-01-31 02:15:00,
2013-01-30 18:30:00,56.0,44.8,30.28,SSW,202,0.0,0.0,66,0.00,SKC,,0.00,WeatherDisplay:10.37,2013-01-31 02:30:00,
2013-01-30 18:45:00,54.9,44.5,30.28,SSW,202,0.0,0.0,68,0.00,SKC,,0.00,WeatherDisplay:10.37,2013-01-31 02:45:00,
2013-01-30 19:00:00,53.9,44.3,30.28,SSW,202,0.0,0.0,70,0.00,SKC,,0.00,WeatherDisplay:10.37,2013-01-31 03:00:00,
2013-01-30 19:15:00,52.8,44.0,30.28,SSW,202,0.0,0.0,72,0.00,SKC,,0.00,WeatherDisplay:10.37,2013-01-31 03:15:00,
2013-01-30 19:30:00,51.6,43.9,30.28,SSW,202,0.0,0.0,75,0.00,SKC,,0.00,WeatherDisplay:10.37,2013-01-31 03:30:00,
2013-01-30 19:45:00,50.7,43.7,30.28,SSW,202,0.0,0.0,77,0.00,SKC,,0.00,WeatherDisplay:10.37,2013-01-31 03:45:00,
2013-01-30 20:00:00,50.0,43.4,30.29,SSW,202,0.0,0.0,78,0.00,SKC,,0.00,WeatherDisplay:10.37,2013-01-31 04:00:00,
2013-01-30 20:15:00,49.4,43.5,30.29,SSW,202,0.0,0.0,80,0.00,SKC,,0.00,WeatherDisplay:10.37,2013-01-31 04:15:00,
2013-01-30 20:30:00,49.1,43.2,30.29,SSW,202,0.0,0.0,80,0.00,SKC,,0.00,WeatherDisplay:10.37,2013-01-31 04:30:00,
2013-01-30 20:45:00,48.7,43.1,30.29,SSW,202,0.0,0.0,81,0.00,SKC,,0.00,WeatherDisplay:10.37,2013-01-31 04:45:00,
2013-01-30 21:15:00,47.5,42.3,30.29,SSW,202,0.0,0.0,82,0.00,SKC,,0.00,WeatherDisplay:10.37,2013-01-31 05:15:00,
2013-01-30 21:30:00,47.0,42.1,30.28,SSW,202,0.0,0.0,83,0.00,SKC,,0.00,WeatherDisplay:10.37,2013-01-31 05:30:00,
2013-01-30 21:45:00,46.3,41.7,30.28,SSW,202,0.0,0.0,84,0.00,SKC,,0.00,WeatherDisplay:10.37,2013-01-31 05:45:00,
2013-01-30 22:00:00,46.0,42.0,30.28,SSW,202,0.0,0.0,86,0.00,CLR,,0.00,WeatherDisplay:10.37,2013-01-31 06:00:00,
2013-01-30 22:15:00,45.8,41.8,30.28,SSW,202,0.0,0.0,86,0.00,CLR,,0.00,WeatherDisplay:10.37,2013-01-31 06:15:00,
2013-01-30 22:30:00,45.2,41.2,30.28,SSW,202,0.0,0.0,86,0.00,CLR,,0.00,WeatherDisplay:10.37,2013-01-31 06:30:00,
2013-01-30 22:45:00,44.7,41.0,30.28,SSW,202,0.0,0.0,87,0.00,CLR,,0.00,WeatherDisplay:10.37,2013-01-31 06:45:00,
2013-01-30 23:00:00,44.3,41.0,30.28,SSW,202,0.0,0.0,88,0.00,CLR,,0.00,WeatherDisplay:10.37,2013-01-31 07:00:00,
2013-01-30 23:15:00,43.9,40.6,30.29,SSW,202,0.0,0.0,88,0.00,CLR,,0.00,WeatherDisplay:10.37,2013-01-31 07:15:00,
2013-01-30 23:30:00,43.6,40.2,30.29,SSW,202,0.0,0.0,88,0.00,CLR,,0.00,WeatherDisplay:10.37,2013-01-31 07:30:00,
2013-01-30 23:45:00,43.3,40.3,30.29,SSW,202,0.0,0.0,89,0.00,CLR,,0.00,WeatherDisplay:10.37,2013-01-31 07:45:00,